Portada
METAR-TAF:

METAR-TAF

Aeroports :

Ambon, Indonèsia

latitud: 03-42S, longitud: 128-05E, altitud: 12 m

Observació

L'informe es va fer fa 19 minuts, a les 07:30 UTC
Vent 9 kt del Nord-Oest, variant entre Oest i Nord
Temperatura 32°C
Humitat 59%
Pressió 1006 hPa
Visibilitat 10 km o més
Núvols disperses a una alçada de 1800 ft

METAR: WAPP 300730Z 31009KT 260V350 9999 SCT018 32/23 Q1006 NOSIG

Hora: 16:49 (07:49 UTC)

Pronòstic

L'informe es va fer fa 2 hores i 49 minuts, a les 05:00 UTC
Pronòstic vàlid del 30 a les 06 UTC al 31 a les 06 UTC
Vent 9 kt del Sud
Visibilitat 10 km o més
Núvols disperses a una alçada de 1800 ft
Evolucionant progressivament
l' 30 a les 10 UTC al 30 a les 12 UTC
Vent 5 kt del Nord/Nord-Oest

TAF: WAPP 300500Z 3006/3106 19009KT 9999 SCT018 BECMG 3010/3012 34005KT

Observacions i pronòstics meteorològics de més de 4000 aeroports (METAR i TAF).

Les estacions disponibles són els punts grocs i vermells al mapa.

Posi el ratolí al punt desitjat per veure el nom de l'estació.

Feu clic per veure les observacions i els pronòstics meteorològics.

Per canviar el mapa: feu clic els botons verds amb una creu de color negre per apropar; al botó verd amb un guió per allunyar la imatge; o en les fletxes verdes per a mapes adjacents.


METAR-TAF: